Time;durP1;ratioP1;P1;durP2;ratioP2;P2;SDS_P1;SDS_P2;PMS_P1;PMS_P2;Temp;Humidity;BMP_temperature;BMP_pressure;BME280_temperature;BME280_humidity;BME280_pressure;Samples;Min_cycle;Max_cycle;Signal;HPM_P1;HPM_P2
2021/04/27 00:02:19;;;;;;;14.80;7.07;;;;;;;3.67;47.09;98950.00;113519;1200;64464;-80
2021/04/27 00:04:46;;;;;;;14.25;7.65;;;;;;;3.61;47.48;98947.63;113572;1200;64382;-81
2021/04/27 00:07:13;;;;;;;13.03;7.23;;;;;;;3.52;48.22;98944.41;113500;1199;64416;-79
2021/04/27 00:09:41;;;;;;;13.35;7.40;;;;;;;3.43;48.55;98938.66;113499;1200;64400;-79
2021/04/27 00:12:08;;;;;;;14.83;8.97;;;;;;;3.34;48.84;98936.36;113657;1199;64417;-79
2021/04/27 00:14:36;;;;;;;14.60;9.70;;;;;;;3.25;49.08;98941.06;113558;1200;64356;-79
2021/04/27 00:17:04;;;;;;;13.95;9.10;;;;;;;3.19;49.11;98935.19;113605;1199;64410;-80
2021/04/27 00:19:31;;;;;;;17.50;9.87;;;;;;;3.12;49.06;98931.06;113592;1200;64378;-82
2021/04/27 00:21:59;;;;;;;18.27;9.37;;;;;;;3.05;49.29;98927.78;113662;1199;64438;-79
2021/04/27 00:24:28;;;;;;;17.70;10.00;;;;;;;2.99;49.86;98930.66;113718;1199;64385;-81
2021/04/27 00:26:54;;;;;;;14.70;9.50;;;;;;;2.92;50.03;98931.79;113618;1200;64441;-79
2021/04/27 00:29:21;;;;;;;18.17;9.73;;;;;;;2.83;50.41;98927.73;113703;1199;64487;-82
2021/04/27 00:31:47;;;;;;;15.13;10.50;;;;;;;2.78;50.24;98919.15;113697;1199;64378;-80
2021/04/27 00:34:14;;;;;;;19.63;12.03;;;;;;;2.77;50.46;98920.08;113695;1199;64317;-80
2021/04/27 00:36:40;;;;;;;18.23;10.60;;;;;;;2.75;50.61;98924.53;113638;1200;64430;-80
2021/04/27 00:39:07;;;;;;;17.60;11.60;;;;;;;2.71;50.73;98923.76;113552;1200;64390;-80
2021/04/27 00:41:33;;;;;;;17.33;10.37;;;;;;;2.67;51.21;98927.44;113546;1200;64467;-79
2021/04/27 00:44:00;;;;;;;21.43;9.47;;;;;;;2.56;51.24;98919.92;113505;1200;64336;-79
2021/04/27 00:46:27;;;;;;;24.03;14.43;;;;;;;2.49;51.30;98917.56;113476;1200;64941;-80
2021/04/27 00:48:53;;;;;;;19.45;10.10;;;;;;;2.41;51.71;98923.09;113646;1200;64478;-79
2021/04/27 00:51:20;;;;;;;25.03;10.67;;;;;;;2.34;51.99;98922.47;113638;1200;64375;-79
2021/04/27 00:53:47;;;;;;;22.13;9.93;;;;;;;2.30;52.32;98918.20;113580;1200;64404;-80
2021/04/27 00:56:14;;;;;;;24.20;11.30;;;;;;;2.27;52.62;98915.69;113565;1199;64384;-80
2021/04/27 00:58:41;;;;;;;28.73;14.97;;;;;;;2.24;52.61;98914.92;113594;1200;64439;-80
2021/04/27 01:01:11;;;;;;;29.85;15.45;;;;;;;2.20;52.75;98908.91;113551;1200;64308;-80
2021/04/27 01:03:39;;;;;;;35.43;17.20;;;;;;;2.16;52.92;98908.17;113605;1199;64352;-79
2021/04/27 01:06:08;;;;;;;32.20;15.73;;;;;;;2.15;52.92;98913.47;113525;1200;64362;-79
2021/04/27 01:08:43;;;;;;;25.60;15.45;;;;;;;2.11;52.91;98914.50;113555;1200;64496;-80
2021/04/27 01:11:23;;;;;;;28.53;14.60;;;;;;;2.10;52.86;98916.25;113494;1200;64403;-80
2021/04/27 01:14:05;;;;;;;29.80;16.40;;;;;;;2.04;53.06;98921.72;113522;1199;64564;-79
2021/04/27 01:16:36;;;;;;;25.85;15.10;;;;;;;1.93;53.20;98913.34;113532;1200;64467;-79
2021/04/27 01:19:07;;;;;;;28.57;14.80;;;;;;;1.86;53.51;98911.82;113538;1199;64541;-79
2021/04/27 01:21:36;;;;;;;29.93;15.53;;;;;;;1.76;53.50;98908.63;113556;1199;64381;-79
2021/04/27 01:24:17;;;;;;;30.87;17.17;;;;;;;1.72;53.26;98907.02;113555;1199;64404;-79
2021/04/27 01:26:50;;;;;;;30.05;16.55;;;;;;;1.68;53.12;98900.14;113688;1200;64327;-79
2021/04/27 01:29:21;;;;;;;28.05;16.75;;;;;;;1.66;53.73;98900.20;113608;1199;64375;-79
2021/04/27 01:31:51;;;;;;;31.53;17.30;;;;;;;1.57;54.27;98902.26;113671;1199;64378;-79
2021/04/27 01:34:22;;;;;;;34.30;17.50;;;;;;;1.45;54.41;98906.12;113645;1199;64326;-80
2021/04/27 01:36:51;;;;;;;34.05;20.35;;;;;;;1.41;54.45;98909.77;113627;1200;64503;-79
2021/04/27 01:39:20;;;;;;;41.90;22.95;;;;;;;1.40;54.25;98915.94;113583;1199;64406;-79
2021/04/27 01:41:47;;;;;;;38.75;22.20;;;;;;;1.39;54.39;98909.80;113628;1200;64419;-79
2021/04/27 01:44:14;;;;;;;36.03;20.47;;;;;;;1.34;54.76;98911.70;113625;1198;64384;-79
2021/04/27 01:46:43;;;;;;;34.80;19.30;;;;;;;1.24;55.08;98908.52;113636;1200;64410;-80
2021/04/27 01:49:12;;;;;;;29.73;18.17;;;;;;;1.16;55.29;98902.66;113633;1200;64477;-80
2021/04/27 01:51:39;;;;;;;35.27;18.30;;;;;;;1.06;55.72;98914.33;113702;1200;64362;-80
2021/04/27 01:54:06;;;;;;;35.53;18.73;;;;;;;1.00;55.64;98915.38;113578;1199;64378;-80
2021/04/27 01:56:32;;;;;;;31.80;18.40;;;;;;;0.93;55.69;98910.35;113575;1200;64372;-79
2021/04/27 01:58:59;;;;;;;37.37;18.60;;;;;;;0.87;56.03;98920.11;113507;1200;64717;-80
2021/04/27 02:01:26;;;;;;;41.25;27.35;;;;;;;0.86;56.48;98910.50;113597;1200;64378;-79
2021/04/27 02:03:53;;;;;;;39.37;23.23;;;;;;;0.80;56.64;98910.69;113585;1200;64372;-80
2021/04/27 02:06:20;;;;;;;45.10;22.80;;;;;;;0.80;56.80;98915.09;113679;1199;64378;-79
2021/04/27 02:08:51;;;;;;;35.75;22.15;;;;;;;0.76;56.82;98919.54;113629;1200;64433;-80
2021/04/27 02:11:19;;;;;;;36.87;21.57;;;;;;;0.73;56.65;98911.77;113628;1199;64509;-80
2021/04/27 02:13:46;;;;;;;35.97;21.73;;;;;;;0.73;56.36;98918.78;113604;1198;64465;-80
2021/04/27 02:16:13;;;;;;;44.10;23.70;;;;;;;0.72;56.45;98917.07;113535;1200;64404;-80
2021/04/27 02:19:06;;;;;;;40.50;22.20;;;;;;;0.69;56.24;98920.64;113550;1200;64484;-80
2021/04/27 02:21:34;;;;;;;43.33;23.83;;;;;;;0.67;56.40;98913.72;113492;1200;64375;-80
2021/04/27 02:24:01;;;;;;;38.95;22.60;;;;;;;0.63;56.22;98921.67;113546;1199;64372;-78
2021/04/27 02:26:33;;;;;;;41.67;23.27;;;;;;;0.61;56.13;98915.61;113493;1199;64416;-80
2021/04/27 02:29:04;;;;;;;36.00;22.45;;;;;;;0.59;56.69;98919.17;113593;1200;64401;-79
2021/04/27 02:31:32;;;;;;;40.80;22.55;;;;;;;0.56;56.29;98919.27;113636;1200;64308;-79
2021/04/27 02:34:04;;;;;;;44.00;23.40;;;;;;;0.55;56.32;98915.76;113669;1200;64378;-80
2021/04/27 02:36:35;;;;;;;47.70;22.77;;;;;;;0.51;56.39;98908.89;113575;1200;64381;-79
2021/04/27 02:39:08;;;;;;;37.80;23.63;;;;;;;0.44;56.45;98908.19;113577;1200;64445;-81
2021/04/27 02:41:35;;;;;;;43.93;24.83;;;;;;;0.38;56.48;98910.98;113571;1199;64525;-79
2021/04/27 02:44:04;;;;;;;42.60;22.47;;;;;;;0.33;56.85;98917.26;113599;1200;64440;-79
2021/04/27 02:46:31;;;;;;;49.40;24.70;;;;;;;0.24;57.05;98914.87;113724;1200;64371;-80
2021/04/27 02:48:57;;;;;;;48.83;25.50;;;;;;;0.21;56.91;98908.83;113587;1199;64340;-80
2021/04/27 02:51:24;;;;;;;44.67;24.83;;;;;;;0.20;57.13;98906.23;113626;1200;64452;-79
2021/04/27 02:53:50;;;;;;;45.90;25.67;;;;;;;0.17;56.95;98901.94;113625;1199;64345;-80
2021/04/27 02:56:17;;;;;;;40.93;23.70;;;;;;;0.17;56.94;98909.80;113582;1200;64352;-80
2021/04/27 02:58:44;;;;;;;44.20;24.77;;;;;;;0.19;56.85;98904.53;113584;1200;64343;-80
2021/04/27 03:01:11;;;;;;;39.47;22.93;;;;;;;0.15;57.00;98913.36;113636;1200;64480;-81
2021/04/27 03:03:38;;;;;;;44.97;22.00;;;;;;;0.10;57.02;98902.98;113622;1199;64352;-78
2021/04/27 03:06:05;;;;;;;40.93;22.77;;;;;;;0.06;56.93;98906.61;113616;1199;64420;-81
2021/04/27 03:08:32;;;;;;;43.75;23.70;;;;;;;0.03;57.69;98911.05;113632;1200;64339;-80
2021/04/27 03:10:59;;;;;;;43.80;22.50;;;;;;;-0.02;57.46;98917.28;113699;1199;64326;-79
2021/04/27 03:13:26;;;;;;;46.80;23.70;;;;;;;-0.06;58.05;98907.77;113635;1199;64541;-83
2021/04/27 03:15:52;;;;;;;38.20;21.83;;;;;;;-0.10;57.75;98911.38;113698;1199;64462;-81
2021/04/27 03:18:19;;;;;;;40.30;23.13;;;;;;;-0.14;58.02;98908.86;113680;1200;64413;-80
2021/04/27 03:20:46;;;;;;;40.87;23.80;;;;;;;-0.29;58.39;98905.74;113633;1200;64449;-80
2021/04/27 03:23:13;;;;;;;43.97;23.77;;;;;;;-0.34;58.55;98910.23;113644;1200;64371;-81
2021/04/27 03:25:42;;;;;;;41.15;24.90;;;;;;;-0.38;58.23;98905.95;113641;1200;64413;-79
2021/04/27 03:28:09;;;;;;;46.90;24.30;;;;;;;-0.39;58.45;98904.23;113660;1200;64481;-80
2021/04/27 03:30:36;;;;;;;42.00;25.10;;;;;;;-0.40;58.65;98907.73;113684;1200;64477;-81
2021/04/27 03:33:03;;;;;;;42.35;23.85;;;;;;;-0.34;58.57;98906.72;113498;1200;64404;-79
2021/04/27 03:35:30;;;;;;;46.00;24.15;;;;;;;-0.30;58.56;98905.77;113591;1200;64343;-79
2021/04/27 03:37:57;;;;;;;35.90;23.40;;;;;;;-0.27;58.77;98901.30;113617;1200;64378;-81
2021/04/27 03:40:24;;;;;;;39.83;23.20;;;;;;;-0.30;59.18;98900.53;113669;1200;64310;-80
2021/04/27 03:42:52;;;;;;;41.67;23.97;;;;;;;-0.29;58.94;98899.62;113593;1200;64375;-80
2021/04/27 03:45:22;;;;;;;43.03;24.37;;;;;;;-0.31;58.96;98901.44;113646;1200;64356;-80
2021/04/27 03:47:49;;;;;;;48.17;25.53;;;;;;;-0.28;59.08;98906.59;113572;1200;64378;-79
2021/04/27 03:50:19;;;;;;;41.70;24.25;;;;;;;-0.22;59.06;98903.81;113597;1199;64307;-79
2021/04/27 03:52:46;;;;;;;41.25;23.80;;;;;;;-0.04;59.52;98900.73;113550;1200;64384;-79
2021/04/27 03:55:13;;;;;;;37.37;23.50;;;;;;;0.74;58.83;98895.14;113657;1200;64889;-79
2021/04/27 03:57:40;;;;;;;42.63;24.60;;;;;;;1.45;58.03;98892.98;113514;1200;64368;-79
2021/04/27 04:00:10;;;;;;;37.50;24.95;;;;;;;2.07;57.20;98891.84;113541;1199;64382;-78
2021/04/27 04:02:36;;;;;;;38.53;24.37;;;;;;;2.62;56.57;98893.39;113558;1200;64311;-79
2021/04/27 04:05:04;;;;;;;39.07;23.63;;;;;;;3.05;56.09;98897.08;113497;1200;64308;-79
2021/04/27 04:07:31;;;;;;;35.43;24.77;;;;;;;3.60;54.90;98898.45;113570;1200;64432;-80
2021/04/27 04:09:57;;;;;;;43.75;26.20;;;;;;;4.11;54.04;98898.10;113620;1200;64365;-80
2021/04/27 04:12:24;;;;;;;43.00;27.27;;;;;;;4.59;53.36;98890.77;113564;1200;64375;-80
2021/04/27 04:14:52;;;;;;;44.80;26.50;;;;;;;5.00;52.35;98891.55;113579;1199;64461;-80
2021/04/27 04:17:19;;;;;;;41.85;26.60;;;;;;;5.32;51.97;98893.59;113505;1200;64477;-79
2021/04/27 04:19:47;;;;;;;37.50;26.53;;;;;;;5.68;51.24;98893.63;113497;1200;64379;-80
2021/04/27 04:22:14;;;;;;;35.63;24.77;;;;;;;6.10;50.48;98897.77;113655;1200;64345;-80
2021/04/27 04:24:41;;;;;;;31.47;23.77;;;;;;;6.51;49.69;98893.01;113666;1200;64368;-80
2021/04/27 04:27:08;;;;;;;40.17;25.70;;;;;;;6.90;49.33;98897.15;113646;1200;64506;-81
2021/04/27 04:29:34;;;;;;;34.87;26.20;;;;;;;7.26;49.01;98901.38;113541;1200;64367;-79
2021/04/27 04:32:01;;;;;;;36.15;25.60;;;;;;;7.58;48.42;98902.26;113634;1200;64467;-79
2021/04/27 04:34:28;;;;;;;36.25;25.25;;;;;;;7.80;47.94;98906.34;113607;1200;64397;-79
2021/04/27 04:36:55;;;;;;;38.23;25.20;;;;;;;7.82;47.42;98915.93;113525;1200;64368;-79
2021/04/27 04:39:21;;;;;;;37.43;26.07;;;;;;;7.91;47.08;98909.23;113579;1199;64411;-79
2021/04/27 04:41:48;;;;;;;31.93;23.90;;;;;;;8.20;46.41;98915.50;113597;1200;64423;-80
2021/04/27 04:44:14;;;;;;;31.63;24.43;;;;;;;8.28;46.14;98910.59;113604;1199;64739;-80
2021/04/27 04:46:42;;;;;;;28.97;23.10;;;;;;;8.61;45.30;98908.70;113632;1199;64339;-79
2021/04/27 04:49:09;;;;;;;31.00;22.47;;;;;;;8.81;44.65;98911.02;113625;1199;64333;-79
2021/04/27 04:51:35;;;;;;;29.40;20.87;;;;;;;9.04;44.10;98898.97;113551;1199;64375;-79
2021/04/27 04:54:02;;;;;;;27.70;20.80;;;;;;;9.28;44.12;98907.21;113512;1200;64512;-79
2021/04/27 04:56:29;;;;;;;25.25;19.95;;;;;;;9.67;43.52;98900.30;113590;1200;64487;-79
2021/04/27 04:58:55;;;;;;;26.13;20.57;;;;;;;9.96;43.22;98906.38;113611;1200;64381;-79
2021/04/27 05:01:23;;;;;;;27.17;19.97;;;;;;;10.40;42.90;98899.94;113594;1199;64467;-79
2021/04/27 05:03:50;;;;;;;25.57;18.80;;;;;;;10.85;42.53;98902.19;113544;1200;64342;-79
2021/04/27 05:06:18;;;;;;;28.10;20.87;;;;;;;11.11;41.80;98901.24;113500;1199;64426;-79
2021/04/27 05:08:46;;;;;;;26.10;17.97;;;;;;;11.18;41.45;98902.49;113574;1200;64529;-79
2021/04/27 05:11:13;;;;;;;26.40;18.73;;;;;;;11.33;41.10;98911.23;113559;1200;64436;-79
2021/04/27 05:13:39;;;;;;;27.30;18.63;;;;;;;11.42;40.87;98905.22;113584;1200;64467;-79
2021/04/27 05:16:10;;;;;;;21.70;17.10;;;;;;;11.36;40.52;98902.16;113515;1200;64372;-80
2021/04/27 05:18:39;;;;;;;22.77;17.07;;;;;;;11.32;40.53;98900.66;113552;1199;64394;-79
2021/04/27 05:21:06;;;;;;;21.07;17.43;;;;;;;11.51;40.41;98913.55;113574;1200;64534;-80
2021/04/27 05:23:33;;;;;;;22.20;16.90;;;;;;;11.72;39.86;98906.66;113514;1199;64416;-80
2021/04/27 05:26:00;;;;;;;21.50;16.27;;;;;;;11.82;39.54;98912.15;113549;1200;64433;-79
2021/04/27 05:28:26;;;;;;;18.43;15.53;;;;;;;11.89;39.33;98912.60;113516;1200;64423;-79
2021/04/27 05:30:53;;;;;;;19.67;14.07;;;;;;;12.12;38.95;98910.91;113593;1198;64439;-78
2021/04/27 05:33:20;;;;;;;17.50;13.17;;;;;;;12.33;38.65;98906.61;113576;1200;64841;-79
2021/04/27 05:35:46;;;;;;;16.00;12.40;;;;;;;12.49;38.44;98906.30;113588;1200;64438;-79
2021/04/27 05:38:13;;;;;;;21.05;13.90;;;;;;;12.64;38.24;98910.48;113631;1199;64314;-79
2021/04/27 05:40:40;;;;;;;17.13;12.30;;;;;;;12.72;37.68;98910.73;113648;1199;64400;-78
2021/04/27 05:43:07;;;;;;;19.20;11.50;;;;;;;12.65;37.45;98911.33;113627;1200;64429;-78
2021/04/27 05:45:33;;;;;;;23.77;13.10;;;;;;;12.56;37.12;98917.36;113522;1200;64337;-79
2021/04/27 05:48:00;;;;;;;15.80;11.13;;;;;;;12.64;37.08;98920.33;113590;1200;64483;-79
2021/04/27 05:50:27;;;;;;;15.20;11.33;;;;;;;12.55;36.78;98913.00;113642;1199;64481;-79
2021/04/27 05:52:54;;;;;;;17.73;11.50;;;;;;;12.49;36.92;98917.84;113633;1199;64298;-81
2021/04/27 05:55:21;;;;;;;17.33;11.23;;;;;;;12.54;36.86;98922.00;113670;1199;64397;-82
2021/04/27 05:57:48;;;;;;;15.90;10.40;;;;;;;12.57;36.67;98921.76;113710;1200;64522;-79
2021/04/27 06:00:15;;;;;;;16.97;11.03;;;;;;;12.55;36.06;98927.20;113679;1200;64372;-80
2021/04/27 06:02:42;;;;;;;16.17;10.47;;;;;;;12.37;35.95;98926.77;113674;1199;66003;-82
2021/04/27 06:05:10;;;;;;;17.03;11.77;;;;;;;12.14;35.98;98923.18;113666;1199;64369;-79
2021/04/27 06:07:38;;;;;;;17.13;10.83;;;;;;;11.94;35.47;98923.80;113658;1200;64298;-80
2021/04/27 06:10:05;;;;;;;18.33;11.13;;;;;;;11.69;36.05;98924.69;113595;1199;64484;-79
2021/04/27 06:12:33;;;;;;;15.67;10.57;;;;;;;11.53;35.99;98924.95;113588;1199;64336;-79
2021/04/27 06:15:00;;;;;;;12.83;9.30;;;;;;;11.38;36.03;98927.77;113531;1200;64356;-79
2021/04/27 06:17:26;;;;;;;15.43;9.87;;;;;;;11.31;36.34;98922.97;113538;1200;64375;-79
2021/04/27 06:19:53;;;;;;;13.47;9.23;;;;;;;11.28;35.57;98926.71;113496;1199;64541;-79
2021/04/27 06:22:20;;;;;;;14.00;8.80;;;;;;;11.04;36.00;98928.45;113539;1200;64350;-79
2021/04/27 06:24:46;;;;;;;16.67;10.40;;;;;;;10.90;36.48;98932.05;113517;1199;64385;-79
2021/04/27 06:27:13;;;;;;;17.40;9.85;;;;;;;10.92;36.82;98933.66;113560;1200;64407;-79
2021/04/27 06:29:40;;;;;;;11.23;9.60;;;;;;;10.98;36.90;98932.41;113551;1199;64314;-79
2021/04/27 06:32:07;;;;;;;12.60;9.50;;;;;;;10.99;36.83;98934.94;113613;1199;64406;-79
2021/04/27 06:34:33;;;;;;;13.00;9.60;;;;;;;11.06;37.10;98937.17;113653;1200;64355;-80
2021/04/27 06:37:01;;;;;;;13.33;9.07;;;;;;;11.20;37.49;98935.25;113665;1199;64446;-80
2021/04/27 06:39:28;;;;;;;14.80;9.37;;;;;;;11.40;37.55;98936.52;113656;1200;64349;-80
2021/04/27 06:41:55;;;;;;;12.47;9.23;;;;;;;11.56;37.43;98932.77;113589;1200;64483;-81
2021/04/27 06:44:21;;;;;;;11.35;8.30;;;;;;;11.64;37.60;98936.58;113562;1200;64500;-80
2021/04/27 06:46:48;;;;;;;14.17;8.40;;;;;;;11.70;36.76;98937.09;113597;1200;64365;-79
2021/04/27 06:49:14;;;;;;;12.23;7.57;;;;;;;11.64;37.15;98941.06;113649;1200;64317;-80
2021/04/27 06:51:41;;;;;;;12.10;7.17;;;;;;;11.64;36.61;98941.91;113672;1200;64691;-80
2021/04/27 06:54:08;;;;;;;9.97;6.43;;;;;;;11.38;36.27;98935.77;113677;1200;64419;-80
2021/04/27 06:56:34;;;;;;;9.13;6.70;;;;;;;10.73;36.46;98941.22;113544;1199;64377;-79
2021/04/27 06:59:01;;;;;;;8.43;5.90;;;;;;;10.25;36.88;98946.22;113556;1199;64378;-79
2021/04/27 07:01:29;;;;;;;9.57;6.73;;;;;;;9.68;36.84;98944.58;113580;1199;64375;-79
2021/04/27 07:03:56;;;;;;;10.03;7.70;;;;;;;9.31;38.04;98949.56;113622;1200;64439;-80
2021/04/27 07:06:23;;;;;;;12.03;7.63;;;;;;;9.08;37.76;98958.11;113558;1200;64492;-80
2021/04/27 07:08:50;;;;;;;11.43;7.20;;;;;;;8.85;38.12;98954.22;113532;1200;64391;-79
2021/04/27 07:11:16;;;;;;;9.60;6.80;;;;;;;8.75;38.50;98957.41;113531;1199;64445;-80
2021/04/27 07:13:43;;;;;;;11.00;7.43;;;;;;;8.74;38.64;98958.38;113546;1198;64372;-80
2021/04/27 07:16:10;;;;;;;9.90;6.80;;;;;;;8.67;38.92;98957.02;113557;1200;64375;-79
2021/04/27 07:18:36;;;;;;;12.50;7.63;;;;;;;8.52;38.68;98960.58;113555;1199;64350;-79
2021/04/27 07:21:03;;;;;;;9.20;5.90;;;;;;;8.43;38.33;98961.98;113518;1199;64413;-80
2021/04/27 07:23:30;;;;;;;9.40;6.70;;;;;;;8.37;38.77;98964.95;113507;1199;64416;-80
2021/04/27 07:25:57;;;;;;;10.90;6.70;;;;;;;8.27;38.64;98964.66;113530;1199;64455;-80
2021/04/27 07:28:23;;;;;;;9.53;5.10;;;;;;;8.31;38.74;98967.97;113539;1200;64397;-80
2021/04/27 07:30:51;;;;;;;8.20;5.60;;;;;;;8.36;37.71;98961.45;113584;1200;64410;-80
2021/04/27 07:33:18;;;;;;;6.85;5.40;;;;;;;8.39;38.59;98970.19;113558;1200;64503;-80
2021/04/27 07:35:45;;;;;;;7.00;4.85;;;;;;;8.51;38.19;98964.20;113544;1199;64490;-79
2021/04/27 07:38:12;;;;;;;9.27;5.63;;;;;;;8.55;38.18;98963.05;113627;1200;64391;-80
2021/04/27 07:40:38;;;;;;;8.10;5.40;;;;;;;8.70;38.47;98962.14;113622;1200;64378;-80
2021/04/27 07:43:05;;;;;;;8.13;5.67;;;;;;;8.81;38.60;98950.88;113546;1199;64496;-80
2021/04/27 07:45:33;;;;;;;7.70;5.37;;;;;;;8.98;38.51;98961.34;113548;1200;64452;-80
2021/04/27 07:48:03;;;;;;;7.85;6.05;;;;;;;9.09;38.55;98954.52;113554;1200;64356;-78
2021/04/27 07:50:31;;;;;;;8.05;5.35;;;;;;;9.25;38.97;98951.77;113575;1200;64790;-80
2021/04/27 07:52:57;;;;;;;10.93;5.83;;;;;;;9.29;37.71;98948.80;113555;1200;64314;-79
2021/04/27 07:55:24;;;;;;;7.73;5.40;;;;;;;9.36;38.68;98954.60;113625;1199;64359;-79
2021/04/27 07:57:51;;;;;;;8.67;5.23;;;;;;;9.45;37.92;98957.55;113621;1199;64400;-80
2021/04/27 08:00:19;;;;;;;7.27;4.97;;;;;;;9.53;37.84;98943.77;113618;1200;64531;-80
2021/04/27 08:02:46;;;;;;;8.97;5.73;;;;;;;9.62;38.08;98950.30;113517;1199;64426;-79
2021/04/27 08:05:13;;;;;;;7.25;5.05;;;;;;;9.77;37.78;98948.44;113667;1200;64473;-80
2021/04/27 08:07:40;;;;;;;9.50;4.97;;;;;;;9.81;37.29;98945.49;113643;1199;64318;-79
2021/04/27 08:10:09;;;;;;;8.87;4.90;;;;;;;9.78;36.35;98945.70;113621;1200;64451;-79
2021/04/27 08:12:36;;;;;;;8.00;5.30;;;;;;;9.79;36.91;98947.39;113657;1200;64381;-79
2021/04/27 08:15:03;;;;;;;5.70;4.30;;;;;;;9.88;35.62;98957.46;113601;1200;64452;-79
2021/04/27 08:17:29;;;;;;;5.63;4.37;;;;;;;9.93;35.82;98943.02;113574;1199;64401;-80
2021/04/27 08:19:57;;;;;;;5.05;3.60;;;;;;;10.03;35.51;98947.63;113606;1200;64403;-79
2021/04/27 08:22:24;;;;;;;7.30;4.15;;;;;;;10.16;36.28;98942.33;113586;1200;64490;-80
2021/04/27 08:24:51;;;;;;;8.60;4.53;;;;;;;10.39;36.03;98946.17;113567;1200;64384;-81
2021/04/27 08:27:18;;;;;;;3.60;3.20;;;;;;;10.46;35.45;98943.95;113517;1200;64538;-79
2021/04/27 08:29:44;;;;;;;3.40;2.60;;;;;;;10.76;35.12;98939.19;113612;1200;64407;-79
2021/04/27 08:32:12;;;;;;;5.30;3.90;;;;;;;10.99;34.70;98948.28;113577;1200;64301;-79
2021/04/27 08:34:39;;;;;;;4.50;2.45;;;;;;;11.27;33.79;98938.36;113549;1199;64307;-79
2021/04/27 08:37:05;;;;;;;2.75;2.45;;;;;;;11.29;33.05;98935.56;113583;1200;64544;-80
2021/04/27 08:39:32;;;;;;;6.37;3.70;;;;;;;11.34;33.54;98934.27;113627;1199;64375;-79
2021/04/27 08:41:59;;;;;;;3.55;2.60;;;;;;;11.48;32.60;98935.98;113683;1199;64375;-81
2021/04/27 08:44:26;;;;;;;4.37;2.70;;;;;;;11.66;33.60;98941.78;113626;1200;64426;-80
2021/04/27 08:46:52;;;;;;;4.55;3.30;;;;;;;11.83;32.76;98943.25;113579;1200;64483;-80
2021/04/27 08:49:19;;;;;;;4.30;3.23;;;;;;;12.01;33.07;98939.27;113700;1200;64436;-80
2021/04/27 08:51:46;;;;;;;4.80;3.23;;;;;;;12.19;33.24;98934.38;113642;1199;64305;-80
2021/04/27 08:54:12;;;;;;;7.60;4.13;;;;;;;12.36;32.34;98932.25;113664;1199;64407;-81
2021/04/27 08:56:39;;;;;;;7.97;4.60;;;;;;;12.17;32.03;98930.11;113628;1200;64302;-81
2021/04/27 08:59:06;;;;;;;5.45;4.35;;;;;;;11.95;31.79;98930.83;113587;1200;64468;-79
2021/04/27 09:01:32;;;;;;;4.50;4.03;;;;;;;11.77;31.93;98917.85;113541;1199;64558;-80
2021/04/27 09:04:00;;;;;;;6.60;4.73;;;;;;;11.77;31.93;98912.52;113568;1200;64350;-79
2021/04/27 09:06:26;;;;;;;6.97;5.30;;;;;;;11.75;31.73;98929.61;113535;1200;64503;-80
2021/04/27 09:08:55;;;;;;;6.40;4.87;;;;;;;11.61;32.08;98919.91;113600;1200;64368;-78
2021/04/27 09:11:30;;;;;;;7.25;5.30;;;;;;;11.54;32.15;98924.00;113605;1200;64467;-79
2021/04/27 09:14:18;;;;;;;7.65;5.00;;;;;;;11.27;31.91;98918.80;113594;1200;64468;-80
2021/04/27 09:16:59;;;;;;;5.27;4.63;;;;;;;10.75;32.26;98925.98;113600;1200;64375;-79
2021/04/27 09:19:34;;;;;;;5.83;4.70;;;;;;;10.76;32.48;98919.69;113589;1199;64369;-79
2021/04/27 09:22:07;;;;;;;6.07;4.20;;;;;;;10.68;31.25;98922.88;113607;1199;64407;-78
2021/04/27 09:24:39;;;;;;;5.47;3.77;;;;;;;10.53;31.75;98922.13;113557;1200;64490;-80
2021/04/27 09:27:07;;;;;;;9.00;4.05;;;;;;;10.53;32.17;98919.46;113532;1200;64452;-80
2021/04/27 09:29:42;;;;;;;4.97;4.43;;;;;;;10.62;32.62;98917.97;113637;1200;64490;-80
2021/04/27 09:32:10;;;;;;;6.35;4.55;;;;;;;10.70;32.69;98918.30;113616;1200;64397;-80
2021/04/27 09:34:39;;;;;;;6.57;4.40;;;;;;;10.52;32.25;98919.55;113637;1200;64368;-80
2021/04/27 09:37:11;;;;;;;5.90;4.05;;;;;;;10.62;33.00;98919.80;113633;1200;64326;-79
2021/04/27 09:39:50;;;;;;;5.87;4.10;;;;;;;10.74;31.91;98913.59;113634;1200;64474;-80
2021/04/27 09:42:17;;;;;;;5.00;4.05;;;;;;;10.84;33.25;98908.49;113591;1200;64786;-80
2021/04/27 09:44:50;;;;;;;4.33;3.57;;;;;;;11.04;33.11;98905.30;113578;1200;64375;-80
2021/04/27 09:47:29;;;;;;;6.13;3.93;;;;;;;11.22;33.00;98911.16;113569;1200;64429;-80
2021/04/27 09:50:08;;;;;;;6.33;4.03;;;;;;;11.30;32.48;98910.61;113516;1199;64528;-79
2021/04/27 09:52:55;;;;;;;5.30;4.25;;;;;;;11.29;32.38;98903.55;113677;1200;64487;-80
2021/04/27 09:55:21;;;;;;;5.40;4.17;;;;;;;11.33;32.17;98903.23;113651;1200;64851;-79
2021/04/27 09:57:55;;;;;;;7.13;4.23;;;;;;;11.29;31.82;98899.06;113644;1200;64477;-80
2021/04/27 10:00:28;;;;;;;5.07;3.70;;;;;;;11.11;31.87;98897.70;113615;1200;64467;-78
2021/04/27 10:02:57;;;;;;;5.13;3.60;;;;;;;11.00;32.07;98887.79;113673;1200;64369;-79
2021/04/27 10:05:25;;;;;;;6.30;3.80;;;;;;;10.96;31.63;98887.16;113660;1200;64430;-79
2021/04/27 10:07:53;;;;;;;5.30;4.20;;;;;;;11.01;32.27;98886.00;113724;1199;64379;-79
2021/04/27 10:10:20;;;;;;;6.80;3.90;;;;;;;11.06;32.04;98884.72;113562;1200;64410;-79
2021/04/27 10:12:48;;;;;;;5.37;3.87;;;;;;;11.10;32.10;98880.84;113526;1199;64471;-79
2021/04/27 10:15:16;;;;;;;7.07;4.27;;;;;;;11.09;32.64;98889.83;113505;1200;64532;-79
2021/04/27 10:17:43;;;;;;;4.63;3.93;;;;;;;11.04;31.70;98888.45;113649;1199;64502;-80
2021/04/27 10:20:13;;;;;;;5.77;3.90;;;;;;;10.95;32.05;98879.26;113584;1199;64385;-79
2021/04/27 10:22:42;;;;;;;7.10;4.20;;;;;;;10.98;31.96;98879.91;113579;1199;64372;-79
2021/04/27 10:25:29;;;;;;;5.07;3.60;;;;;;;11.12;32.40;98867.42;113539;1200;64381;-80
2021/04/27 10:28:04;;;;;;;4.70;3.85;;;;;;;11.30;32.25;98874.11;113644;1200;64461;-79
2021/04/27 10:30:41;;;;;;;5.30;4.27;;;;;;;11.33;32.21;98879.22;113634;1200;64525;-80
2021/04/27 10:33:12;;;;;;;5.20;3.75;;;;;;;11.40;32.18;98871.60;113610;1200;64474;-78
2021/04/27 10:35:42;;;;;;;3.70;3.40;;;;;;;11.40;31.65;98861.81;113560;1200;64305;-79
2021/04/27 10:38:16;;;;;;;3.93;3.37;;;;;;;11.52;32.69;98861.88;113576;1199;64355;-79
2021/04/27 10:41:00;;;;;;;4.40;4.00;;;;;;;11.52;31.24;98857.38;113569;1199;64487;-79
2021/04/27 10:43:28;;;;;;;6.73;3.97;;;;;;;11.52;31.65;98852.05;113612;1200;64371;-79
2021/04/27 10:45:55;;;;;;;6.70;4.00;;;;;;;11.64;31.57;98850.31;113616;1200;64445;-79
2021/04/27 10:48:25;;;;;;;5.97;3.50;;;;;;;11.68;31.16;98850.92;113545;1200;64323;-80
2021/04/27 10:50:52;;;;;;;5.60;3.83;;;;;;;11.72;32.07;98845.25;113642;1199;64893;-79
2021/04/27 10:53:36;;;;;;;4.33;3.90;;;;;;;11.85;31.90;98848.71;113635;1199;64387;-81
2021/04/27 10:56:05;;;;;;;4.73;3.70;;;;;;;11.61;29.98;98842.50;113733;1200;64355;-80
2021/04/27 10:58:46;;;;;;;4.30;3.90;;;;;;;11.38;30.66;98834.38;113681;1200;64388;-80
2021/04/27 11:01:21;;;;;;;7.40;4.40;;;;;;;11.32;29.83;98828.63;113802;1200;64304;-80
2021/04/27 11:03:52;;;;;;;6.75;4.50;;;;;;;11.26;30.69;98827.25;113771;1199;64375;-79
2021/04/27 11:06:19;;;;;;;5.53;3.97;;;;;;;11.37;31.71;98823.80;113760;1199;64503;-80
2021/04/27 11:08:49;;;;;;;6.15;3.65;;;;;;;11.45;30.47;98828.58;113800;1200;64506;-78
2021/04/27 11:11:26;;;;;;;;;;;;;;;11.41;30.50;98827.97;113674;1207;64493;-78
2021/04/27 11:14:14;;;;;;;6.83;3.90;;;;;;;11.38;31.45;98818.38;113657;1200;64311;-78
2021/04/27 11:16:42;;;;;;;6.85;4.35;;;;;;;11.45;30.47;98823.25;113607;1199;64304;-79
2021/04/27 11:19:31;;;;;;;6.17;3.93;;;;;;;11.29;29.75;98823.52;113630;1200;64304;-80
2021/04/27 11:22:23;;;;;;;8.30;4.03;;;;;;;11.17;30.12;98814.60;113599;1199;64356;-80
2021/04/27 11:24:52;;;;;;;5.37;4.13;;;;;;;11.11;30.75;98813.23;113612;1200;64381;-79
2021/04/27 11:27:39;;;;;;;6.20;4.10;;;;;;;11.24;31.57;98812.32;113689;1200;64336;-81